Asheville, NC (28804)

11:47 AM EST on December 10, 2016 (GMT -0500)
Woodland Hills | | Change Station

Elev 2120 ft 35.67 °N, 82.59 °W | Updated 46 seconds ago

Clear
Clear
--
Feels Like --
N
-
Wind Variable Wind from North

Today
High -- | Low -- °F
--% Chance of Precip.
Yesterday
High -- | Low -- °F
Precip. -- in
Pressure 30.54 in
Visibility 10.0 miles
Clouds Clear
Dew Point Not available.
Humidity Not available.
Rainfall in
Snow Depth Not available.
7:29 AM 5:17 PM
Waxing Gibbous, 85% visible
METAR KAVL 101554Z 36009KT 10SM CLR M01/M12 A3048 RMK AO2 SLP342 T10111117
Pressure 30.54 in
Visibility 10.0 miles
Clouds Clear
Dew Point Not available.
Humidity Not available.
Rainfall in
Snow Depth Not available.
7:29 AM 5:17 PM
Waxing Gibbous, 85% visible
METAR KAVL 101554Z 36009KT 10SM CLR M01/M12 A3048 RMK AO2 SLP342 T10111117

10-Day Weather Forecast

Almanac

Astronomy

Dec. 10, 2016 Rise Set
Actual Time
Civil Twilight
Nautical Twilight
Astronomical Twilight
Moon
Length of Visible Light
Length of Day
Tomorrow will be .
, % of the Moon is Illuminated

Today's Extremes

State Highs State Lows

Community

WunderPhotos

Upload Photos

1,956,569 photos uploaded!

WunderBlog® & News

Nearby

Air Quality

  Air Quality AQ Index Pollutant
Not available.

Snow Depth

Station Depth Elevation

Earthquake Activity

City Distance Mag. Time & Date
Minimum magnitude displayed is 2.5.

Coastal Water Temperatures

Place Temperature

Stations

Nearby Weather Stations

Station Location Temp. Windchill Dew Point Humidity Wind Precip. Elev Updated Type
                   

Watches & Warnings

There are currently no watches in effect.